Time;durP1;ratioP1;P1;durP2;ratioP2;P2;SDS_P1;SDS_P2;PMS_P1;PMS_P2;Temp;Humidity;BMP_temperature;BMP_pressure;BME280_temperature;BME280_humidity;BME280_pressure;Samples;Min_cycle;Max_cycle;Signal;HPM_P1;HPM_P2
2023/04/05 00:01:07;;;;;;;9.20;2.80;;;;;;;11.56;32.94;102188.03;4947998;28;20070;-63
2023/04/05 00:03:33;;;;;;;2.38;1.85;;;;;;;11.51;32.79;102174.06;4932069;28;20127;-62
2023/04/05 00:05:59;;;;;;;7.50;2.58;;;;;;;11.47;32.54;102185.97;4933436;28;20388;-62
2023/04/05 00:08:25;;;;;;;5.03;3.30;;;;;;;11.38;33.06;102178.53;4932555;29;20077;-62
2023/04/05 00:10:51;;;;;;;5.25;2.13;;;;;;;11.32;33.03;102174.44;4932209;28;20089;-62
2023/04/05 00:13:17;;;;;;;6.90;2.65;;;;;;;11.26;33.48;102164.09;4916138;28;20043;-62
2023/04/05 00:15:42;;;;;;;5.18;2.45;;;;;;;11.19;32.83;102153.88;4931887;28;20040;-62
2023/04/05 00:18:20;;;;;;;6.57;2.47;;;;;;;11.16;33.20;102156.75;4916329;28;20042;-63
2023/04/05 00:20:47;;;;;;;5.25;1.90;;;;;;;11.09;32.90;102170.56;4933556;28;20036;-62
2023/04/05 00:23:13;;;;;;;3.08;2.50;;;;;;;11.03;33.21;102162.91;4933514;29;20032;-62
2023/04/05 00:25:38;;;;;;;4.50;2.25;;;;;;;10.99;33.56;102164.09;4932445;28;20547;-62
2023/04/05 00:28:04;;;;;;;5.72;2.38;;;;;;;10.95;33.12;102170.59;4931987;28;20392;-62
2023/04/05 00:30:29;;;;;;;6.60;2.33;;;;;;;10.89;33.50;102165.63;4947593;28;20044;-62
2023/04/05 00:32:55;;;;;;;3.38;2.05;;;;;;;10.86;33.55;102171.19;4947417;28;20035;-62
2023/04/05 00:35:20;;;;;;;3.72;2.53;;;;;;;10.85;34.09;102168.63;4932078;28;20047;-62
2023/04/05 00:37:46;;;;;;;4.22;2.42;;;;;;;10.82;33.52;102169.66;4933130;28;20039;-62
2023/04/05 00:40:11;;;;;;;7.25;3.70;;;;;;;10.79;33.55;102172.53;4931771;28;20519;-62
2023/04/05 00:42:37;;;;;;;5.35;2.00;;;;;;;10.76;33.11;102161.16;4915920;28;20035;-62
2023/04/05 00:45:02;;;;;;;5.03;2.25;;;;;;;10.74;33.93;102161.25;4932777;28;20046;-62
2023/04/05 00:47:28;;;;;;;4.93;2.85;;;;;;;10.69;33.71;102157.16;4950037;28;20031;-62
2023/04/05 00:49:53;;;;;;;2.88;1.75;;;;;;;10.66;34.12;102163.56;4918962;28;20076;-62
2023/04/05 00:52:22;;;;;;;3.35;2.22;;;;;;;10.62;33.95;102162.03;4934935;28;20519;-62
2023/04/05 00:54:48;;;;;;;4.70;2.40;;;;;;;10.55;34.38;102155.34;4935286;28;20036;-62
2023/04/05 00:57:13;;;;;;;6.95;2.30;;;;;;;10.52;33.92;102144.81;4934833;28;20093;-62
2023/04/05 00:59:39;;;;;;;6.95;2.63;;;;;;;10.48;34.16;102154.00;4936846;28;20051;-62
2023/04/05 01:02:15;;;;;;;3.92;2.60;;;;;;;10.43;34.08;102146.25;4918978;29;20507;-62
2023/04/05 01:04:48;;;;;;;5.47;2.42;;;;;;;10.42;33.60;102149.00;4919315;28;20625;-62
2023/04/05 01:07:23;;;;;;;10.07;2.65;;;;;;;10.39;34.27;102144.72;4934833;29;20122;-62
2023/04/05 01:09:58;;;;;;;5.10;2.80;;;;;;;10.36;33.94;102136.00;4934767;28;20130;-62
2023/04/05 01:12:31;;;;;;;3.85;2.20;;;;;;;10.32;33.99;102145.19;4934762;28;20510;-62
2023/04/05 01:14:56;;;;;;;;;;;;;;;10.30;34.21;102149.81;4935631;28;20035;-62
2023/04/05 01:17:27;;;;;;;6.63;2.58;;;;;;;10.28;34.52;102146.34;4935286;28;20290;-62
2023/04/05 01:19:59;;;;;;;3.75;2.50;;;;;;;10.28;33.56;102146.34;4919472;28;20499;-63
2023/04/05 01:23:03;;;;;;;6.37;2.73;;;;;;;10.26;33.89;102140.22;4934437;28;20050;-62
2023/04/05 01:25:41;;;;;;;6.30;2.63;;;;;;;10.20;33.73;102144.13;4934476;28;20059;-62
2023/04/05 01:28:43;;;;;;;4.32;2.58;;;;;;;10.17;34.66;102143.47;4935599;28;20407;-62
2023/04/05 01:31:17;;;;;;;4.95;2.67;;;;;;;10.13;33.91;102144.63;4934323;28;20115;-63
2023/04/05 01:34:01;;;;;;;5.38;2.63;;;;;;;10.10;34.47;102148.31;4935527;28;20522;-63
2023/04/05 01:36:40;;;;;;;5.85;2.25;;;;;;;10.07;34.02;102142.28;4934214;28;20508;-62
2023/04/05 01:39:08;;;;;;;4.60;3.00;;;;;;;10.06;34.07;102135.19;4950279;28;20032;-63
2023/04/05 01:41:33;;;;;;;7.03;2.60;;;;;;;10.04;35.08;102143.31;4935133;28;20024;-62
2023/04/05 01:43:59;;;;;;;5.90;2.90;;;;;;;10.01;34.51;102142.66;4934094;28;20407;-63
2023/04/05 01:46:25;;;;;;;4.95;2.60;;;;;;;10.01;34.68;102145.31;4935254;28;20048;-63
2023/04/05 01:48:51;;;;;;;5.68;2.92;;;;;;;9.95;34.97;102143.88;4935271;28;20114;-62
2023/04/05 01:51:16;;;;;;;3.13;2.05;;;;;;;9.94;35.21;102143.00;4918319;28;20481;-62
2023/04/05 01:53:41;;;;;;;7.35;2.38;;;;;;;9.90;34.21;102144.16;4948778;28;20044;-63
2023/04/05 01:56:07;;;;;;;4.20;2.20;;;;;;;9.89;34.34;102145.09;4950220;28;20035;-62
2023/04/05 01:58:32;;;;;;;6.05;2.85;;;;;;;9.86;34.26;102147.09;4917996;28;20044;-62
2023/04/05 02:00:57;;;;;;;2.17;1.83;;;;;;;9.82;35.22;102138.41;4933852;28;20043;-62
2023/04/05 02:03:23;;;;;;;7.43;2.88;;;;;;;9.81;34.37;102139.38;4935031;28;20071;-62
2023/04/05 02:05:49;;;;;;;5.78;3.35;;;;;;;9.80;34.39;102140.31;4902406;28;20028;-63
2023/04/05 02:08:15;;;;;;;6.22;3.22;;;;;;;9.77;35.27;102132.47;4934354;29;20032;-62
2023/04/05 02:10:40;;;;;;;7.15;2.40;;;;;;;9.76;34.64;102122.72;4933744;28;20090;-62
2023/04/05 02:13:06;;;;;;;9.48;3.00;;;;;;;9.79;34.41;102130.56;4933823;28;20468;-63
2023/04/05 02:15:32;;;;;;;5.90;3.03;;;;;;;9.78;34.28;102131.50;4968888;28;20518;-62
2023/04/05 02:18:00;;;;;;;6.05;2.65;;;;;;;9.76;35.31;102136.09;4953036;28;20035;-62
2023/04/05 02:20:27;;;;;;;6.30;2.90;;;;;;;9.73;34.69;102130.94;4969366;28;20042;-62
2023/04/05 02:22:52;;;;;;;7.43;2.78;;;;;;;9.70;35.65;102122.22;4952666;28;20122;-62
2023/04/05 02:25:18;;;;;;;4.35;2.83;;;;;;;9.68;35.76;102130.34;4952677;28;20114;-63
2023/04/05 02:27:43;;;;;;;8.32;2.90;;;;;;;9.63;36.04;102127.06;4968812;28;20130;-63
2023/04/05 02:30:11;;;;;;;5.15;2.90;;;;;;;9.64;35.64;102122.59;4936683;28;20031;-62
2023/04/05 02:32:36;;;;;;;12.50;2.72;;;;;;;9.61;35.67;102128.97;4953632;28;20035;-62
2023/04/05 02:35:02;;;;;;;7.53;3.67;;;;;;;9.62;35.04;102125.38;4954852;28;20415;-63
2023/04/05 02:37:28;;;;;;;12.10;3.20;;;;;;;9.57;35.62;102124.78;4938000;28;20185;-62
2023/04/05 02:39:53;;;;;;;9.77;4.03;;;;;;;9.56;35.73;102122.19;4952652;28;20039;-62
2023/04/05 02:42:18;;;;;;;6.88;3.10;;;;;;;9.52;35.88;102124.16;4920535;28;20046;-63
2023/04/05 02:44:44;;;;;;;6.57;3.60;;;;;;;9.48;35.98;102117.28;4936645;28;20043;-62
2023/04/05 02:47:09;;;;;;;7.72;3.53;;;;;;;9.48;34.75;102122.66;4936976;28;20125;-62
2023/04/05 02:49:34;;;;;;;4.55;3.00;;;;;;;9.46;36.16;102124.56;4952423;28;20131;-62
2023/04/05 02:52:00;;;;;;;8.43;3.05;;;;;;;9.45;35.13;102125.50;4936462;28;20118;-62
2023/04/05 02:54:25;;;;;;;7.18;3.13;;;;;;;9.44;34.85;102131.78;4967169;28;20493;-63
2023/04/05 02:56:53;;;;;;;8.98;3.17;;;;;;;9.40;35.31;102124.91;4952412;28;20505;-62
2023/04/05 02:59:19;;;;;;;10.15;3.72;;;;;;;9.38;35.76;102116.09;4952883;28;20027;-63
2023/04/05 03:01:45;;;;;;;7.35;2.55;;;;;;;9.33;35.62;102110.16;4952194;28;20043;-63
2023/04/05 03:04:16;;;;;;;5.75;3.22;;;;;;;9.34;36.39;102122.59;4953417;28;20097;-63
2023/04/05 03:06:45;;;;;;;9.98;3.53;;;;;;;9.33;35.41;102123.53;4968183;28;20464;-62
2023/04/05 03:09:10;;;;;;;7.13;3.13;;;;;;;9.32;35.43;102116.47;4951541;28;20495;-62
2023/04/05 03:11:35;;;;;;;7.88;3.67;;;;;;;9.30;35.71;102113.00;4953557;28;20042;-62
2023/04/05 03:14:02;;;;;;;5.30;3.30;;;;;;;9.28;35.53;102107.78;4936154;28;20039;-62
2023/04/05 03:16:27;;;;;;;7.50;3.58;;;;;;;9.24;35.36;102108.06;4936016;28;20499;-62
2023/04/05 03:18:53;;;;;;;7.97;3.25;;;;;;;9.24;35.54;102100.88;4936004;28;20051;-62
2023/04/05 03:21:18;;;;;;;4.30;2.90;;;;;;;9.23;36.20;102106.31;4951990;28;20156;-62
2023/04/05 03:23:47;;;;;;;6.38;3.40;;;;;;;9.21;36.54;102102.88;4936134;28;20027;-62
2023/04/05 03:26:14;;;;;;;8.68;3.40;;;;;;;9.20;35.51;102111.84;4952150;28;20031;-62
2023/04/05 03:28:43;;;;;;;7.18;3.70;;;;;;;9.18;36.29;102113.75;4936058;28;20126;-63
2023/04/05 03:31:09;;;;;;;4.25;2.70;;;;;;;9.16;36.36;102107.59;4952251;28;20039;-63
2023/04/05 03:33:34;;;;;;;9.25;3.75;;;;;;;9.14;36.27;102101.50;4935715;29;20054;-62
2023/04/05 03:36:00;;;;;;;9.73;4.05;;;;;;;9.07;35.75;102094.78;4951784;28;20402;-62
2023/04/05 03:38:27;;;;;;;7.10;3.38;;;;;;;9.11;36.90;102101.66;4953174;28;20039;-62
2023/04/05 03:40:52;;;;;;;8.00;3.70;;;;;;;9.11;36.17;102101.66;4952801;28;20442;-62
2023/04/05 03:43:18;;;;;;;6.25;3.30;;;;;;;9.10;36.07;102105.31;4935590;29;20093;-63
2023/04/05 03:45:43;;;;;;;5.22;3.28;;;;;;;9.06;35.83;102098.41;4935650;28;20085;-62
2023/04/05 03:48:08;;;;;;;7.65;3.58;;;;;;;9.05;35.75;102102.03;4935601;28;20035;-62
2023/04/05 03:50:34;;;;;;;8.88;3.65;;;;;;;9.01;36.67;102089.78;4951615;28;20162;-62
2023/04/05 03:52:59;;;;;;;8.13;4.20;;;;;;;9.01;35.61;102096.00;4951540;28;20047;-62
2023/04/05 03:55:25;;;;;;;7.03;4.18;;;;;;;9.02;35.98;102096.84;4951497;28;20092;-62
2023/04/05 03:57:51;;;;;;;7.55;3.95;;;;;;;8.96;35.83;102086.53;4951813;28;20062;-62
2023/04/05 04:00:16;;;;;;;6.25;2.85;;;;;;;8.95;36.54;102091.00;4935553;28;20100;-62
2023/04/05 04:02:44;;;;;;;7.50;3.53;;;;;;;8.93;36.71;102092.06;4951914;28;20486;-63
2023/04/05 04:05:10;;;;;;;10.88;3.83;;;;;;;8.89;35.78;102085.16;4952131;28;20460;-62
2023/04/05 04:07:36;;;;;;;7.70;3.42;;;;;;;8.85;36.28;102083.63;4920261;28;20112;-63
2023/04/05 04:10:03;;;;;;;6.35;4.07;;;;;;;8.83;36.33;102082.81;4935637;28;20450;-63
2023/04/05 04:12:28;;;;;;;5.35;2.88;;;;;;;8.82;36.87;102084.66;4951590;28;20035;-62
2023/04/05 04:14:54;;;;;;;7.32;3.15;;;;;;;8.80;36.23;102078.50;4935737;28;20633;-62
2023/04/05 04:17:29;;;;;;;7.10;3.47;;;;;;;8.81;36.58;102082.06;4951973;28;20031;-62
2023/04/05 04:19:56;;;;;;;11.75;3.65;;;;;;;8.79;36.01;102084.81;4935456;29;20043;-62
2023/04/05 04:22:22;;;;;;;6.95;3.70;;;;;;;8.77;35.88;102082.22;4950406;28;20046;-63
2023/04/05 04:24:48;;;;;;;5.45;3.28;;;;;;;8.76;37.36;102080.53;4951253;28;20158;-62
2023/04/05 04:27:17;;;;;;;7.22;3.70;;;;;;;8.73;36.59;102078.03;4935099;28;20479;-63
2023/04/05 04:29:46;;;;;;;7.28;3.10;;;;;;;8.70;36.83;102069.31;4935008;28;20121;-63
2023/04/05 04:32:14;;;;;;;9.43;3.28;;;;;;;8.67;36.03;102067.69;4951295;28;20035;-62
2023/04/05 04:34:43;;;;;;;6.07;3.50;;;;;;;8.67;36.02;102074.81;4935067;28;20067;-62
2023/04/05 04:37:16;;;;;;;5.65;3.92;;;;;;;8.67;36.16;102075.69;4951302;28;20042;-62
2023/04/05 04:39:46;;;;;;;8.25;4.50;;;;;;;8.67;36.77;102075.69;4950901;28;20118;-62
2023/04/05 04:42:12;;;;;;;7.00;3.47;;;;;;;8.66;37.14;102076.63;4919430;28;20031;-62
2023/04/05 04:44:38;;;;;;;8.20;4.60;;;;;;;8.63;37.37;102074.13;4951323;29;20020;-62
2023/04/05 04:47:11;;;;;;;8.77;4.13;;;;;;;8.63;36.11;102073.25;4951082;28;20406;-62
2023/04/05 04:49:38;;;;;;;7.88;3.72;;;;;;;8.62;37.03;102088.44;4935662;28;20495;-62
2023/04/05 04:52:04;;;;;;;7.57;3.83;;;;;;;8.60;36.84;102084.97;4950732;28;20062;-62
2023/04/05 04:54:29;;;;;;;7.80;4.50;;;;;;;8.58;37.59;102083.34;4934751;29;20059;-63
2023/04/05 04:56:56;;;;;;;11.27;4.50;;;;;;;8.56;37.45;102083.44;4934762;28;20061;-63
2023/04/05 04:59:21;;;;;;;10.10;4.22;;;;;;;8.55;36.79;102073.69;4950972;28;20032;-62
2023/04/05 05:01:47;;;;;;;9.18;4.22;;;;;;;8.56;37.56;102078.09;4950341;28;20084;-63
2023/04/05 05:04:12;;;;;;;11.75;4.60;;;;;;;8.59;36.73;102085.09;4950422;28;20069;-63
2023/04/05 05:06:37;;;;;;;7.93;3.85;;;;;;;8.58;36.50;102075.34;4951583;28;20107;-62
2023/04/05 05:09:03;;;;;;;10.25;4.65;;;;;;;8.57;37.17;102073.63;4951659;28;20034;-62
2023/04/05 05:11:28;;;;;;;11.98;4.13;;;;;;;8.61;37.35;102081.38;4952219;28;20104;-63
2023/04/05 05:13:54;;;;;;;8.70;3.78;;;;;;;8.58;36.72;102086.00;4950348;28;20118;-62
2023/04/05 05:16:22;;;;;;;7.88;3.58;;;;;;;8.58;36.79;102091.34;4951564;28;20157;-62
2023/04/05 05:18:51;;;;;;;9.43;4.18;;;;;;;8.57;37.20;102090.50;4950455;28;20387;-62
2023/04/05 05:21:17;;;;;;;9.65;3.70;;;;;;;8.56;37.21;102087.91;4949318;28;20495;-62
2023/04/05 05:23:43;;;;;;;10.68;4.63;;;;;;;8.59;36.38;102088.63;4934491;28;20030;-62
2023/04/05 05:26:08;;;;;;;7.82;5.50;;;;;;;8.63;37.75;102087.47;4951841;28;20440;-63
2023/04/05 05:28:33;;;;;;;12.77;5.05;;;;;;;8.68;36.99;102084.56;4934504;28;20032;-62
2023/04/05 05:30:59;;;;;;;10.88;5.18;;;;;;;8.74;37.70;102087.75;4950497;28;20494;-62
2023/04/05 05:33:25;;;;;;;9.18;4.55;;;;;;;8.82;36.36;102086.47;4952321;28;20040;-62
2023/04/05 05:35:51;;;;;;;16.13;6.25;;;;;;;8.90;36.92;102085.06;4937678;28;20031;-63
2023/04/05 05:38:17;;;;;;;14.98;6.22;;;;;;;9.00;37.68;102083.59;4954968;28;20027;-62
2023/04/05 05:40:42;;;;;;;11.32;4.70;;;;;;;9.08;37.39;102080.47;4937106;28;20494;-62
2023/04/05 05:43:09;;;;;;;12.43;4.18;;;;;;;9.13;36.38;102079.25;4954495;28;20035;-62
2023/04/05 05:45:35;;;;;;;10.18;3.75;;;;;;;9.22;36.30;102075.19;4954502;28;20418;-63
2023/04/05 05:48:00;;;;;;;14.13;4.90;;;;;;;9.34;37.72;102079.81;4936925;28;20035;-63
2023/04/05 05:50:26;;;;;;;17.83;5.30;;;;;;;9.43;36.74;102081.94;4954929;28;20134;-62
2023/04/05 05:52:51;;;;;;;11.25;5.60;;;;;;;9.49;37.21;102065.50;4954444;28;20085;-62
2023/04/05 05:55:18;;;;;;;15.07;5.88;;;;;;;9.70;36.56;102079.41;4937163;28;20471;-62
2023/04/05 05:57:44;;;;;;;8.80;4.35;;;;;;;9.84;37.50;102071.41;4953276;28;20035;-62
2023/04/05 06:00:10;;;;;;;9.95;5.40;;;;;;;9.97;36.62;102071.53;4937276;28;20110;-63
2023/04/05 06:02:35;;;;;;;13.90;7.55;;;;;;;10.16;36.72;102072.16;4953401;28;20092;-62
2023/04/05 06:05:01;;;;;;;13.25;5.30;;;;;;;10.31;37.09;102057.78;4949658;28;20028;-63
2023/04/05 06:07:27;;;;;;;7.60;4.32;;;;;;;10.56;36.53;102070.44;4933881;28;20035;-63
2023/04/05 06:09:54;;;;;;;12.40;4.60;;;;;;;10.74;36.78;102064.78;4917958;28;20118;-63
2023/04/05 06:12:22;;;;;;;8.40;4.50;;;;;;;10.94;36.93;102067.00;4934707;28;20055;-63
2023/04/05 06:14:48;;;;;;;10.18;4.40;;;;;;;11.13;36.23;102061.28;4917849;28;20044;-63
2023/04/05 06:17:13;;;;;;;12.50;4.90;;;;;;;11.31;36.66;102069.91;4935367;29;20032;-63
2023/04/05 06:19:39;;;;;;;11.20;5.07;;;;;;;11.45;36.49;102061.78;4933735;28;20046;-63
2023/04/05 06:22:04;;;;;;;6.30;3.92;;;;;;;11.63;36.89;102065.91;4933532;28;20182;-63
2023/04/05 06:24:30;;;;;;;8.57;4.88;;;;;;;11.77;37.02;102057.78;4935063;28;20472;-63
2023/04/05 06:26:59;;;;;;;9.95;4.32;;;;;;;11.97;36.71;102059.09;4949806;28;20399;-63
2023/04/05 06:29:24;;;;;;;13.95;3.97;;;;;;;12.14;36.19;102056.91;4902425;29;20036;-63
2023/04/05 06:31:50;;;;;;;16.38;4.22;;;;;;;12.36;36.91;102066.13;4933818;28;20032;-63
2023/04/05 06:34:15;;;;;;;11.10;4.43;;;;;;;12.56;36.12;102065.56;4933390;28;20117;-63
2023/04/05 06:36:41;;;;;;;11.02;5.03;;;;;;;12.73;37.00;102052.56;4933254;28;20522;-63
2023/04/05 06:39:07;;;;;;;9.27;4.30;;;;;;;12.93;36.52;102061.84;4917792;28;20476;-63
2023/04/05 06:41:32;;;;;;;11.63;4.95;;;;;;;13.09;36.17;102043.63;4933920;29;20483;-63
2023/04/05 06:43:57;;;;;;;9.85;4.68;;;;;;;13.30;36.14;102060.00;4933835;28;20040;-63
2023/04/05 06:46:23;;;;;;;13.85;4.45;;;;;;;13.48;36.05;102060.44;4950004;28;20102;-64
2023/04/05 06:48:49;;;;;;;19.00;5.13;;;;;;;13.65;36.59;102049.22;4934246;29;20046;-63
2023/04/05 06:51:14;;;;;;;12.57;5.43;;;;;;;13.78;36.08;102056.22;4935547;28;20047;-63
2023/04/05 06:53:40;;;;;;;18.92;4.68;;;;;;;13.92;35.69;102047.06;5002443;28;20054;-63
2023/04/05 06:56:06;;;;;;;12.90;5.68;;;;;;;14.08;35.30;102052.06;4934069;29;20123;-63
2023/04/05 06:58:31;;;;;;;7.28;3.97;;;;;;;14.25;35.42;102052.47;4917361;28;20407;-63
2023/04/05 07:00:58;;;;;;;13.77;5.30;;;;;;;14.37;35.15;102054.22;4917194;28;20407;-63
2023/04/05 07:03:24;;;;;;;11.65;5.78;;;;;;;14.49;35.15;102047.81;4949286;28;20059;-63
2023/04/05 07:06:00;;;;;;;11.38;4.68;;;;;;;14.68;35.09;102046.31;4916975;28;20032;-63
2023/04/05 07:08:27;;;;;;;11.25;5.60;;;;;;;14.89;36.29;102047.25;4933550;29;20028;-63
2023/04/05 07:10:53;;;;;;;9.32;4.63;;;;;;;15.07;34.91;102049.25;4917172;29;20032;-63
2023/04/05 07:13:20;;;;;;;12.50;5.32;;;;;;;15.30;34.70;102050.03;4917250;29;20031;-63
2023/04/05 07:15:45;;;;;;;10.68;4.65;;;;;;;15.50;34.64;102046.53;4932942;28;20043;-63
2023/04/05 07:18:11;;;;;;;10.63;5.10;;;;;;;15.70;34.72;102051.06;4934189;28;20446;-64
2023/04/05 07:20:37;;;;;;;12.02;5.88;;;;;;;15.92;35.36;102046.50;4917591;28;20058;-63
2023/04/05 07:23:04;;;;;;;8.73;4.90;;;;;;;16.11;35.20;102052.88;4933984;28;20036;-64
2023/04/05 07:25:30;;;;;;;8.68;4.60;;;;;;;16.31;34.79;102051.09;4932608;29;20036;-63
2023/04/05 07:27:56;;;;;;;11.73;5.15;;;;;;;16.54;34.08;102057.19;4916871;29;20096;-64
2023/04/05 07:30:21;;;;;;;13.77;5.45;;;;;;;16.73;34.95;102060.81;4932608;28;20492;-64
2023/04/05 07:32:47;;;;;;;18.05;5.00;;;;;;;16.93;34.30;102055.44;4916793;28;20040;-64
2023/04/05 07:35:12;;;;;;;12.23;5.50;;;;;;;17.13;33.75;102055.34;4933028;28;20420;-63
2023/04/05 07:37:38;;;;;;;7.97;5.35;;;;;;;17.34;33.49;102066.00;4916903;28;20032;-63
2023/04/05 07:40:04;;;;;;;10.38;4.82;;;;;;;17.53;33.29;102057.03;4933274;28;20040;-64
2023/04/05 07:42:30;;;;;;;10.43;4.75;;;;;;;17.73;33.21;102056.88;4932981;28;20062;-64
2023/04/05 07:44:56;;;;;;;10.20;5.00;;;;;;;17.92;32.99;102056.00;4948852;28;20109;-61
2023/04/05 07:47:21;;;;;;;11.95;5.93;;;;;;;18.13;34.10;102053.06;4933899;29;20522;-62
2023/04/05 07:49:47;;;;;;;10.48;4.78;;;;;;;18.31;32.79;102043.16;4916599;29;20575;-62
2023/04/05 07:52:12;;;;;;;10.32;5.57;;;;;;;18.52;33.46;102050.09;4933167;29;20043;-62
2023/04/05 07:54:38;;;;;;;11.73;5.38;;;;;;;18.73;32.45;102041.69;4950167;28;20054;-61
2023/04/05 07:57:05;;;;;;;11.05;5.25;;;;;;;18.94;31.86;102050.41;4951517;28;20049;-61
2023/04/05 07:59:30;;;;;;;10.45;5.07;;;;;;;19.12;32.42;102051.25;4951758;28;20035;-62
2023/04/05 08:01:56;;;;;;;13.48;5.80;;;;;;;19.30;31.84;102061.25;4968786;28;20032;-63
2023/04/05 08:04:22;;;;;;;8.10;4.18;;;;;;;19.45;32.34;102048.88;4967297;28;20036;-62
2023/04/05 08:06:47;;;;;;;10.60;4.53;;;;;;;19.57;31.80;102043.03;4967251;28;20042;-62
2023/04/05 08:09:13;;;;;;;10.25;5.65;;;;;;;19.81;32.03;102045.09;4951438;28;20398;-63
2023/04/05 08:11:39;;;;;;;8.73;4.93;;;;;;;19.97;31.74;102044.34;4953456;28;20490;-62
2023/04/05 08:14:04;;;;;;;8.77;5.68;;;;;;;20.17;32.19;102043.09;4952037;28;20041;-62
2023/04/05 08:16:30;;;;;;;8.45;3.90;;;;;;;20.40;31.47;102046.13;4951047;28;20510;-64
2023/04/05 08:18:55;;;;;;;13.15;4.53;;;;;;;20.55;31.26;102034.44;4935135;28;20047;-63
2023/04/05 08:21:21;;;;;;;6.97;4.18;;;;;;;20.74;30.78;102049.69;4967169;28;20411;-63
2023/04/05 08:23:48;;;;;;;10.23;5.03;;;;;;;20.88;31.17;102046.31;4952255;28;20057;-63
2023/04/05 08:26:14;;;;;;;8.02;5.60;;;;;;;21.06;30.31;102049.75;4935862;28;20034;-63
2023/04/05 08:28:39;;;;;;;10.70;4.68;;;;;;;21.18;31.11;102048.47;4952365;28;20526;-63
2023/04/05 08:31:05;;;;;;;7.13;4.32;;;;;;;21.35;30.59;102035.69;4935092;28;20172;-63
2023/04/05 08:33:30;;;;;;;7.13;4.10;;;;;;;21.52;29.89;102039.28;4951027;28;20039;-63
2023/04/05 08:35:56;;;;;;;7.80;4.30;;;;;;;21.67;30.40;102038.41;4952000;28;20036;-63
2023/04/05 08:38:22;;;;;;;5.28;4.03;;;;;;;21.84;29.82;102039.22;4935266;28;20054;-64
2023/04/05 08:40:48;;;;;;;12.95;5.00;;;;;;;22.03;29.01;102041.59;4950895;28;20388;-63
2023/04/05 08:43:16;;;;;;;11.50;5.30;;;;;;;22.22;29.17;102030.28;4951000;28;20564;-63
2023/04/05 08:45:52;;;;;;;8.32;4.88;;;;;;;22.42;28.61;102030.72;4952053;28;20028;-64
2023/04/05 08:48:18;;;;;;;10.52;4.00;;;;;;;22.57;28.27;102029.81;4934548;28;20046;-64
2023/04/05 08:50:53;;;;;;;7.50;3.95;;;;;;;22.74;27.89;102027.03;4950478;28;20055;-64
2023/04/05 08:53:19;;;;;;;10.32;4.68;;;;;;;22.89;28.92;102022.50;4935142;28;20368;-64
2023/04/05 08:56:05;;;;;;;11.07;5.05;;;;;;;23.05;27.80;102022.41;4950690;28;20035;-64
2023/04/05 08:58:32;;;;;;;10.40;4.40;;;;;;;23.20;27.70;102028.75;4951848;28;20387;-63
2023/04/05 09:00:58;;;;;;;8.10;4.13;;;;;;;23.32;27.36;102024.59;4919441;29;20035;-64
2023/04/05 09:03:36;;;;;;;10.80;4.75;;;;;;;23.46;27.58;102023.81;4934787;28;20133;-64
2023/04/05 09:06:06;;;;;;;11.40;4.40;;;;;;;23.60;27.41;102022.16;4950891;28;20039;-64
2023/04/05 09:08:31;;;;;;;9.55;5.03;;;;;;;23.69;27.17;102016.44;4937415;29;20033;-64
2023/04/05 09:10:57;;;;;;;8.90;4.10;;;;;;;23.81;27.19;102018.72;4937878;28;20039;-63
2023/04/05 09:13:22;;;;;;;7.65;4.07;;;;;;;23.92;27.35;102019.09;4937798;28;20111;-63
2023/04/05 09:15:48;;;;;;;8.98;4.45;;;;;;;24.04;27.43;102022.22;4953773;28;20062;-64
2023/04/05 09:18:13;;;;;;;11.05;4.65;;;;;;;24.18;26.97;102013.19;4955020;28;20033;-64
2023/04/05 09:20:38;;;;;;;10.13;4.55;;;;;;;24.26;26.80;102005.72;4938130;28;20023;-64
2023/04/05 09:23:04;;;;;;;8.77;4.07;;;;;;;24.41;26.45;102007.59;4954951;28;20412;-64
2023/04/05 09:25:38;;;;;;;7.20;3.92;;;;;;;24.56;25.69;102017.50;4953773;28;20181;-64
2023/04/05 09:28:08;;;;;;;11.27;4.60;;;;;;;24.68;25.90;102009.66;4954757;28;20035;-64
2023/04/05 09:30:35;;;;;;;7.90;4.50;;;;;;;24.82;26.00;102006.03;4937489;28;20028;-64
2023/04/05 09:33:02;;;;;;;7.82;4.35;;;;;;;24.96;25.85;102005.13;4953630;28;20046;-65
2023/04/05 09:35:30;;;;;;;7.78;3.92;;;;;;;25.07;25.67;102003.78;4962995;28;20126;-64
2023/04/05 09:38:00;;;;;;;9.60;4.25;;;;;;;25.21;25.66;102005.63;4952395;28;20151;-64
2023/04/05 09:40:50;;;;;;;13.80;4.18;;;;;;;25.39;24.70;102014.22;4953413;28;20101;-64
2023/04/05 09:43:34;;;;;;;8.73;4.40;;;;;;;25.79;25.28;102008.06;4953326;28;20415;-65
2023/04/05 09:46:00;;;;;;;7.40;4.70;;;;;;;26.36;24.89;101996.78;4953421;28;20031;-66
2023/04/05 09:48:45;;;;;;;6.45;4.80;;;;;;;27.43;23.59;101996.91;4937547;28;20031;-66
2023/04/05 09:51:10;;;;;;;6.30;4.63;;;;;;;29.44;23.03;101996.41;4969319;28;20067;-67
2023/04/05 09:53:36;;;;;;;9.82;4.57;;;;;;;31.12;20.48;101990.25;4955302;28;20027;-65
2023/04/05 09:56:11;;;;;;;8.50;5.03;;;;;;;30.51;21.23;101982.13;4937364;28;20055;-66
2023/04/05 09:58:36;;;;;;;9.32;4.20;;;;;;;29.96;21.81;101985.97;4953342;28;20043;-67
2023/04/05 10:01:03;;;;;;;10.13;5.35;;;;;;;29.64;22.27;101978.81;4954134;28;20089;-67
2023/04/05 10:03:28;;;;;;;7.03;5.18;;;;;;;29.52;22.19;101997.19;4952956;28;20031;-67
2023/04/05 10:05:55;;;;;;;8.68;4.70;;;;;;;29.47;22.06;101988.75;4952271;28;20379;-64
2023/04/05 10:08:22;;;;;;;6.18;4.68;;;;;;;29.55;21.57;101981.03;4954635;28;20019;-64
2023/04/05 10:10:49;;;;;;;10.18;4.75;;;;;;;29.70;21.64;101983.44;4952961;28;20035;-65
2023/04/05 10:13:15;;;;;;;8.68;4.88;;;;;;;29.75;21.58;101969.78;4936832;29;20031;-66
2023/04/05 10:15:44;;;;;;;7.63;4.53;;;;;;;29.85;21.46;101975.66;4952772;28;20050;-66
2023/04/05 10:18:15;;;;;;;6.25;4.30;;;;;;;29.97;21.14;101965.53;4952555;28;20386;-68
2023/04/05 10:20:42;;;;;;;7.22;4.30;;;;;;;30.20;20.61;101962.94;4936181;28;20089;-70
2023/04/05 10:23:12;;;;;;;7.53;4.63;;;;;;;30.43;20.61;101970.56;4969011;28;20029;-67
2023/04/05 10:25:53;;;;;;;9.55;4.45;;;;;;;30.68;20.36;101965.75;4952785;28;20077;-68
2023/04/05 10:28:34;;;;;;;10.25;4.82;;;;;;;30.84;20.40;101972.56;4953957;28;20035;-68
2023/04/05 10:31:34;;;;;;;10.52;5.15;;;;;;;31.00;20.40;101963.59;4953865;28;20035;-68
2023/04/05 10:34:05;;;;;;;7.20;4.20;;;;;;;31.08;20.33;101963.25;4937658;29;20043;-68
2023/04/05 10:36:40;;;;;;;6.57;4.10;;;;;;;31.19;19.91;101958.81;4924595;29;20055;-68
2023/04/05 10:39:15;;;;;;;7.70;4.00;;;;;;;31.24;19.82;101959.78;4933328;28;20058;-68
2023/04/05 10:42:05;;;;;;;6.45;4.65;;;;;;;31.35;19.78;101955.38;4934741;29;20492;-67
2023/04/05 10:44:33;;;;;;;9.00;4.57;;;;;;;31.49;19.76;101956.88;4933372;29;20054;-68
2023/04/05 10:46:59;;;;;;;7.28;4.78;;;;;;;31.58;19.35;101950.72;4933486;28;20511;-67
2023/04/05 10:49:32;;;;;;;6.00;4.45;;;;;;;31.70;19.60;101951.56;4917351;28;20132;-67
2023/04/05 10:51:57;;;;;;;13.05;4.88;;;;;;;31.80;19.97;101952.91;4933330;28;20097;-67
2023/04/05 10:54:24;;;;;;;7.00;4.72;;;;;;;31.95;19.16;101944.91;4933109;28;20031;-67
2023/04/05 10:56:49;;;;;;;8.30;5.10;;;;;;;31.94;19.52;101949.59;4933156;28;20028;-67
2023/04/05 10:59:15;;;;;;;6.10;4.40;;;;;;;31.91;19.59;101949.28;4933484;28;20039;-67
2023/04/05 11:01:41;;;;;;;9.70;4.53;;;;;;;31.91;19.06;101938.19;4916079;28;20381;-67
2023/04/05 11:04:16;;;;;;;6.60;4.50;;;;;;;31.98;19.32;101941.66;4932938;28;20040;-66
2023/04/05 11:06:46;;;;;;;11.27;4.72;;;;;;;32.02;19.47;101946.47;4932943;28;20036;-69
2023/04/05 11:09:19;;;;;;;9.00;4.97;;;;;;;32.05;18.55;101939.63;4933070;28;20032;-66
2023/04/05 11:11:47;;;;;;;11.30;4.53;;;;;;;32.07;19.29;101937.44;4933128;28;20079;-67
2023/04/05 11:14:24;;;;;;;9.73;5.00;;;;;;;32.04;18.71;101929.63;4918001;28;20024;-68
2023/04/05 11:16:54;;;;;;;6.47;4.57;;;;;;;32.02;18.57;101937.34;4934001;28;20040;-68
2023/04/05 11:19:19;;;;;;;9.50;4.68;;;;;;;31.98;18.45;101931.41;4933152;29;20115;-68
2023/04/05 11:21:45;;;;;;;5.88;4.47;;;;;;;31.92;18.96;101924.06;4932839;28;20063;-68
2023/04/05 11:24:14;;;;;;;10.80;4.25;;;;;;;31.88;18.91;101927.56;4933991;28;20492;-68
2023/04/05 11:26:39;;;;;;;16.00;5.50;;;;;;;31.84;18.73;101918.03;4917584;29;20112;-68
2023/04/05 11:29:06;;;;;;;6.60;4.15;;;;;;;31.89;18.68;101920.91;4932907;28;20132;-68